AFR007 KLAX-LFPG
Flight info
| Callsign | AFR007 |
|---|---|
| Flight time | N/A |
| Altitude | 35000 |
| Route | OSHNN1 BEALE DCT EEVUN DCT BCE DCT KD57Q DCT KD66S DCT KD75U DCT KD87W DCT KP06Y DCT KP15A DCT OTLUR DCT 54N090W/N0485F370 5730N08000W DCT JELCO DCT GRIBS/M085F370 DCT KETLA DCT 63N050W 6230N04000W 61N030W 5930N02000W DCT AGORI/N0477F370 DCT OSBOX DCT APSOV DCT PEPOD DCT MAKUX DCT SOSIM L15 KEPAD L151 MID/N0437F290 Y803 SFD UM605 BIBAX |
| Aircraft | A388/J-SADE2E3FGHIJ3J4J5M1RWXY/LB1D1 |
Departure
| Time | 2026-04-23 23:44 |
|---|---|
| Airport | Los Angeles International Airport (KLAX) |
Arrival
| Time | N/A |
|---|---|
| Airport | Charles de Gaulle International Airport (LFPG) |
| Time | Latitude | Longitude | Altitude | Speed | Heading |
|---|---|---|---|---|---|
| 2026-04-23 23:44 | 33.65408 | -118.37501 | 15586 ft | 339 kts | 110° |
| 2026-04-23 23:44 | 33.64771 | -118.34763 | 16084 ft | 343 kts | 102° |
| 2026-04-23 23:44 | 33.64462 | -118.31913 | 16577 ft | 347 kts | 95° |
| 2026-04-23 23:44 | 33.64449 | -118.29001 | 17045 ft | 351 kts | 91° |
| 2026-04-23 23:45 | 33.64469 | -118.26054 | 17498 ft | 354 kts | 92° |
| 2026-04-23 23:45 | 33.64471 | -118.23092 | 17950 ft | 357 kts | 92° |
| 2026-04-23 23:45 | 33.64741 | -118.20111 | 18362 ft | 365 kts | 77° |
| 2026-04-23 23:45 | 33.65812 | -118.17323 | 18780 ft | 375 kts | 58° |
| 2026-04-23 23:46 | 33.67585 | -118.15045 | 19176 ft | 384 kts | 41° |
| 2026-04-23 23:46 | 33.69774 | -118.13092 | 19556 ft | 389 kts | 39° |
| 2026-04-23 23:46 | 33.71974 | -118.11175 | 19944 ft | 392 kts | 39° |
| 2026-04-23 23:46 | 33.74186 | -118.09234 | 20325 ft | 395 kts | 39° |
| 2026-04-23 23:47 | 33.76377 | -118.07289 | 20691 ft | 399 kts | 39° |
| 2026-04-23 23:47 | 33.78640 | -118.05267 | 21059 ft | 402 kts | 39° |
| 2026-04-23 23:47 | 33.80891 | -118.03248 | 21415 ft | 405 kts | 39° |
| 2026-04-23 23:47 | 33.83151 | -118.01217 | 21767 ft | 408 kts | 39° |
| 2026-04-23 23:48 | 33.85432 | -117.99164 | 22109 ft | 411 kts | 39° |
| 2026-04-23 23:48 | 33.87730 | -117.97096 | 22454 ft | 414 kts | 39° |
| 2026-04-23 23:48 | 33.90046 | -117.95010 | 22799 ft | 417 kts | 39° |
| 2026-04-23 23:48 | 33.92378 | -117.92903 | 23136 ft | 420 kts | 39° |
| 2026-04-23 23:49 | 33.97028 | -117.88651 | 23783 ft | 426 kts | 39° |
| 2026-04-23 23:49 | 33.99425 | -117.86453 | 24112 ft | 429 kts | 39° |
| 2026-04-23 23:49 | 34.01771 | -117.84304 | 24427 ft | 431 kts | 39° |
| 2026-04-23 23:50 | 34.04202 | -117.82077 | 24768 ft | 434 kts | 39° |
| 2026-04-23 23:50 | 34.06582 | -117.79895 | 25071 ft | 437 kts | 39° |
| 2026-04-23 23:50 | 34.08908 | -117.77534 | 25390 ft | 438 kts | 46° |
| 2026-04-23 23:50 | 34.10952 | -117.74809 | 25718 ft | 438 kts | 54° |
| 2026-04-23 23:51 | 34.12884 | -117.71883 | 26037 ft | 442 kts | 53° |
| 2026-04-23 23:51 | 34.14828 | -117.68996 | 26388 ft | 445 kts | 53° |
| 2026-04-23 23:51 | 34.16797 | -117.66087 | 26733 ft | 448 kts | 53° |
| 2026-04-23 23:51 | 34.18775 | -117.63161 | 27089 ft | 451 kts | 53° |
| 2026-04-23 23:52 | 34.20737 | -117.60250 | 27442 ft | 454 kts | 53° |
| 2026-04-23 23:52 | 34.22763 | -117.57241 | 27812 ft | 458 kts | 52° |
| 2026-04-23 23:52 | 34.24776 | -117.54246 | 28133 ft | 461 kts | 52° |
| 2026-04-23 23:52 | 34.26779 | -117.51260 | 28485 ft | 464 kts | 52° |
| 2026-04-23 23:53 | 34.28844 | -117.48181 | 28823 ft | 467 kts | 52° |
| 2026-04-23 23:53 | 34.30897 | -117.45116 | 29175 ft | 470 kts | 52° |
| 2026-04-23 23:53 | 34.32956 | -117.42040 | 29509 ft | 473 kts | 52° |
| 2026-04-23 23:53 | 34.35032 | -117.38936 | 29855 ft | 476 kts | 52° |
| 2026-04-23 23:54 | 34.37118 | -117.35814 | 30196 ft | 479 kts | 52° |
| 2026-04-23 23:54 | 34.39221 | -117.32664 | 30540 ft | 482 kts | 52° |
| 2026-04-23 23:54 | 34.41330 | -117.29503 | 30861 ft | 484 kts | 51° |
| 2026-04-23 23:54 | 34.43452 | -117.26319 | 31193 ft | 487 kts | 51° |
| 2026-04-23 23:55 | 34.45558 | -117.23156 | 31520 ft | 490 kts | 51° |
| 2026-04-23 23:55 | 34.47729 | -117.19892 | 31849 ft | 492 kts | 51° |
| 2026-04-23 23:55 | 34.49883 | -117.16651 | 32159 ft | 495 kts | 51° |
| 2026-04-23 23:55 | 34.52045 | -117.13395 | 32466 ft | 497 kts | 51° |
| 2026-04-23 23:56 | 34.54219 | -117.10119 | 32777 ft | 500 kts | 51° |
| 2026-04-23 23:56 | 34.56422 | -117.06847 | 33082 ft | 502 kts | 50° |
| 2026-04-23 23:56 | 34.58643 | -117.03625 | 33382 ft | 504 kts | 49° |
| 2026-04-23 23:56 | 34.60901 | -117.00363 | 33698 ft | 506 kts | 49° |
| 2026-04-23 23:57 | 34.63168 | -116.97078 | 33995 ft | 509 kts | 49° |
| 2026-04-23 23:57 | 34.65439 | -116.93774 | 34294 ft | 511 kts | 49° |
| 2026-04-23 23:57 | 34.67718 | -116.90450 | 34599 ft | 513 kts | 49° |
| 2026-04-23 23:57 | 34.70002 | -116.87111 | 34923 ft | 514 kts | 49° |
| 2026-04-23 23:58 | 34.74635 | -116.80330 | 35006 ft | 530 kts | 49° |
| 2026-04-23 23:58 | 34.79426 | -116.73304 | 35006 ft | 548 kts | 49° |
| 2026-04-23 23:59 | 34.84357 | -116.66056 | 35000 ft | 564 kts | 49° |
| 2026-04-23 23:59 | 34.89428 | -116.58752 | 36101 ft | 552 kts | 47° |
| 2026-04-24 00:00 | 34.91896 | -116.55242 | 36999 ft | 542 kts | 47° |
| 2026-04-24 00:00 | 34.94337 | -116.51766 | 37503 ft | 538 kts | 47° |
| 2026-04-24 00:00 | 34.96767 | -116.48306 | 37883 ft | 537 kts | 47° |
| 2026-04-24 00:00 | 34.99200 | -116.44839 | 38206 ft | 537 kts | 47° |
| 2026-04-24 00:01 | 35.01629 | -116.41376 | 38530 ft | 537 kts | 47° |
| 2026-04-24 00:01 | 35.04059 | -116.37911 | 38837 ft | 537 kts | 47° |
| 2026-04-24 00:01 | 35.06487 | -116.34447 | 39149 ft | 537 kts | 47° |
| 2026-04-24 00:01 | 35.08915 | -116.30983 | 39439 ft | 537 kts | 47° |
| 2026-04-24 00:02 | 35.11347 | -116.27512 | 39722 ft | 537 kts | 47° |
| 2026-04-24 00:02 | 35.13776 | -116.24043 | 40000 ft | 537 kts | 47° |
| 2026-04-24 00:02 | 35.16203 | -116.20576 | 40275 ft | 537 kts | 47° |
| 2026-04-24 00:02 | 35.18633 | -116.17104 | 40535 ft | 537 kts | 47° |
| 2026-04-24 00:03 | 35.21059 | -116.13637 | 40790 ft | 537 kts | 47° |
| 2026-04-24 00:03 | 35.23486 | -116.10168 | 41043 ft | 537 kts | 47° |
| 2026-04-24 00:03 | 35.25913 | -116.06696 | 41278 ft | 537 kts | 47° |
| 2026-04-24 00:03 | 35.28343 | -116.03220 | 41517 ft | 537 kts | 47° |
| 2026-04-24 00:04 | 35.30768 | -115.99750 | 41753 ft | 537 kts | 47° |
| 2026-04-24 00:04 | 35.33195 | -115.96275 | 41982 ft | 537 kts | 47° |
| 2026-04-24 00:04 | 35.35626 | -115.92795 | 42208 ft | 537 kts | 47° |
| 2026-04-24 00:04 | 35.38054 | -115.89317 | 42422 ft | 537 kts | 47° |
| 2026-04-24 00:05 | 35.40476 | -115.85847 | 42639 ft | 537 kts | 47° |
| 2026-04-24 00:05 | 35.42906 | -115.82364 | 42837 ft | 537 kts | 47° |
| 2026-04-24 00:05 | 35.45331 | -115.78888 | 43042 ft | 537 kts | 47° |
| 2026-04-24 00:05 | 35.47757 | -115.75408 | 43230 ft | 537 kts | 47° |
| 2026-04-24 00:06 | 35.50185 | -115.71925 | 43416 ft | 537 kts | 47° |
| 2026-04-24 00:06 | 35.52607 | -115.68449 | 43591 ft | 537 kts | 47° |
| 2026-04-24 00:06 | 35.55034 | -115.64966 | 43776 ft | 537 kts | 47° |
| 2026-04-24 00:06 | 35.57461 | -115.61481 | 43948 ft | 537 kts | 47° |
| 2026-04-24 00:07 | 35.59886 | -115.57998 | 44122 ft | 537 kts | 47° |
| 2026-04-24 00:07 | 35.62313 | -115.54511 | 44284 ft | 536 kts | 47° |
| 2026-04-24 00:07 | 35.64738 | -115.51026 | 44446 ft | 536 kts | 47° |
| 2026-04-24 00:07 | 35.67160 | -115.47543 | 44587 ft | 537 kts | 47° |
| 2026-04-24 00:08 | 35.69587 | -115.44054 | 44753 ft | 536 kts | 47° |
| 2026-04-24 00:08 | 35.72010 | -115.40567 | 44885 ft | 536 kts | 47° |
| 2026-04-24 00:08 | 35.74436 | -115.37076 | 45019 ft | 536 kts | 47° |
| 2026-04-24 00:08 | 35.76864 | -115.33582 | 45149 ft | 536 kts | 47° |
| 2026-04-24 00:09 | 35.79285 | -115.30095 | 45277 ft | 536 kts | 47° |
| 2026-04-24 00:09 | 35.81712 | -115.26600 | 45405 ft | 536 kts | 47° |
| 2026-04-24 00:09 | 35.84136 | -115.23115 | 45525 ft | 536 kts | 46° |
| 2026-04-24 00:09 | 35.86829 | -115.19951 | 45515 ft | 535 kts | 34° |
| 2026-04-24 00:10 | 35.93159 | -115.15163 | 45168 ft | 537 kts | 31° |
| 2026-04-24 00:10 | 35.96198 | -115.12462 | 44640 ft | 539 kts | 38° |
| 2026-04-24 00:10 | 35.99018 | -115.09529 | 43947 ft | 533 kts | 38° |
| 2026-04-24 00:11 | 36.01852 | -115.06533 | 43202 ft | 526 kts | 42° |
| 2026-04-24 00:11 | 36.04315 | -115.03260 | 42101 ft | 530 kts | 50° |
| 2026-04-24 00:11 | 36.06597 | -114.99680 | 41145 ft | 528 kts | 50° |
| 2026-04-24 00:11 | 36.08859 | -114.96148 | 40473 ft | 520 kts | 49° |
| 2026-04-24 00:12 | 36.11174 | -114.92682 | 39791 ft | 512 kts | 47° |
| 2026-04-24 00:12 | 36.13476 | -114.89352 | 38988 ft | 508 kts | 47° |
| 2026-04-24 00:12 | 36.15768 | -114.86100 | 38073 ft | 507 kts | 46° |
| 2026-04-24 00:12 | 36.18096 | -114.82825 | 37108 ft | 507 kts | 46° |
| 2026-04-24 00:13 | 36.20500 | -114.79561 | 36109 ft | 506 kts | 43° |
| 2026-04-24 00:13 | 36.22962 | -114.76472 | 35398 ft | 503 kts | 43° |
| 2026-04-24 00:13 | 36.25417 | -114.73439 | 35115 ft | 508 kts | 43° |
| 2026-04-24 00:13 | 36.27948 | -114.70286 | 35011 ft | 512 kts | 43° |
| 2026-04-24 00:14 | 36.32105 | -114.65042 | 35009 ft | 514 kts | 44° |
| 2026-04-24 00:14 | 36.37107 | -114.58675 | 35042 ft | 516 kts | 44° |
| 2026-04-24 00:15 | 36.42129 | -114.52264 | 35010 ft | 513 kts | 44° |
| 2026-04-24 00:15 | 36.47109 | -114.45895 | 35007 ft | 515 kts | 44° |
| 2026-04-24 00:16 | 36.52111 | -114.39487 | 35013 ft | 516 kts | 44° |
| 2026-04-24 00:16 | 36.57099 | -114.33085 | 35012 ft | 516 kts | 44° |
| 2026-04-24 00:17 | 36.62089 | -114.26666 | 35014 ft | 516 kts | 44° |
| 2026-04-24 00:17 | 36.67078 | -114.20237 | 35006 ft | 516 kts | 44° |
| 2026-04-24 00:18 | 36.72024 | -114.13849 | 35012 ft | 516 kts | 44° |
| 2026-04-24 00:18 | 36.77033 | -114.07369 | 35011 ft | 516 kts | 44° |
| 2026-04-24 00:19 | 36.81976 | -114.00960 | 35008 ft | 516 kts | 44° |
| 2026-04-24 00:19 | 36.86945 | -113.94505 | 35011 ft | 516 kts | 44° |
| 2026-04-24 00:20 | 36.91915 | -113.88036 | 35012 ft | 516 kts | 44° |
| 2026-04-24 00:20 | 36.96882 | -113.81556 | 35011 ft | 516 kts | 44° |
| 2026-04-24 00:21 | 37.01876 | -113.75029 | 35007 ft | 516 kts | 45° |
| 2026-04-24 00:21 | 37.06272 | -113.67990 | 35011 ft | 518 kts | 57° |
| 2026-04-24 00:22 | 37.09892 | -113.60177 | 35009 ft | 519 kts | 59° |
| 2026-04-24 00:22 | 37.13526 | -113.52378 | 35011 ft | 519 kts | 59° |
| 2026-04-24 00:23 | 37.17178 | -113.44494 | 35005 ft | 519 kts | 59° |
| 2026-04-24 00:23 | 37.20789 | -113.36664 | 35011 ft | 519 kts | 59° |
| 2026-04-24 00:24 | 37.24372 | -113.28871 | 35007 ft | 519 kts | 59° |
| 2026-04-24 00:24 | 37.27997 | -113.20970 | 35007 ft | 519 kts | 59° |
| 2026-04-24 00:25 | 37.31595 | -113.13108 | 35014 ft | 519 kts | 59° |
| 2026-04-24 00:25 | 37.35166 | -113.05285 | 35015 ft | 519 kts | 59° |
| 2026-04-24 00:26 | 37.38751 | -112.97415 | 35010 ft | 519 kts | 59° |
| 2026-04-24 00:26 | 37.42333 | -112.89531 | 35010 ft | 519 kts | 59° |
| 2026-04-24 00:27 | 37.45907 | -112.81646 | 35009 ft | 519 kts | 59° |
| 2026-04-24 00:27 | 37.49473 | -112.73759 | 35007 ft | 519 kts | 59° |
| 2026-04-24 00:28 | 37.53038 | -112.65856 | 35009 ft | 519 kts | 59° |
| 2026-04-24 00:28 | 37.56596 | -112.57950 | 35004 ft | 519 kts | 59° |
| 2026-04-24 00:29 | 37.60149 | -112.50035 | 35008 ft | 519 kts | 59° |
| 2026-04-24 00:29 | 37.63693 | -112.42119 | 35011 ft | 519 kts | 60° |
| 2026-04-24 00:30 | 37.67252 | -112.34204 | 35010 ft | 519 kts | 57° |
| 2026-04-24 00:30 | 37.71667 | -112.27054 | 35008 ft | 516 kts | 44° |
| 2026-04-24 00:31 | 37.76815 | -112.20744 | 35000 ft | 515 kts | 42° |
| 2026-04-24 00:31 | 37.81946 | -112.14408 | 35014 ft | 515 kts | 42° |
| 2026-04-24 00:32 | 37.87077 | -112.08072 | 35009 ft | 516 kts | 42° |
| 2026-04-24 00:32 | 37.92211 | -112.01727 | 35015 ft | 516 kts | 42° |
| 2026-04-24 00:33 | 37.97340 | -111.95375 | 35005 ft | 516 kts | 42° |
| 2026-04-24 00:33 | 38.02467 | -111.89013 | 35009 ft | 516 kts | 42° |
| 2026-04-24 00:34 | 38.07592 | -111.82640 | 35015 ft | 516 kts | 43° |
| 2026-04-24 00:34 | 38.12711 | -111.76260 | 35011 ft | 516 kts | 43° |
| 2026-04-24 00:35 | 38.17824 | -111.69876 | 35012 ft | 515 kts | 43° |
| 2026-04-24 00:35 | 38.22933 | -111.63482 | 35008 ft | 515 kts | 43° |
| 2026-04-24 00:36 | 38.28036 | -111.57085 | 35010 ft | 515 kts | 43° |
| 2026-04-24 00:36 | 38.33138 | -111.50674 | 35006 ft | 515 kts | 43° |
| 2026-04-24 00:37 | 38.38234 | -111.44256 | 35009 ft | 516 kts | 43° |
| 2026-04-24 00:37 | 38.43331 | -111.37826 | 35002 ft | 515 kts | 43° |
| 2026-04-24 00:38 | 38.48427 | -111.31382 | 35009 ft | 516 kts | 43° |
| 2026-04-24 00:38 | 38.53516 | -111.24934 | 35006 ft | 516 kts | 43° |
| 2026-04-24 00:39 | 38.58604 | -111.18472 | 35014 ft | 516 kts | 43° |
| 2026-04-24 00:39 | 38.63687 | -111.12004 | 35009 ft | 516 kts | 43° |
| 2026-04-24 00:40 | 38.68773 | -111.05518 | 35009 ft | 516 kts | 43° |
| 2026-04-24 00:40 | 38.73848 | -110.99033 | 35015 ft | 516 kts | 43° |
| 2026-04-24 00:41 | 38.78924 | -110.92532 | 35014 ft | 516 kts | 43° |
| 2026-04-24 00:41 | 38.83962 | -110.86068 | 35011 ft | 516 kts | 43° |
| 2026-04-24 00:42 | 38.89058 | -110.79513 | 35007 ft | 516 kts | 43° |
| 2026-04-24 00:42 | 38.94123 | -110.72985 | 35010 ft | 515 kts | 43° |
| 2026-04-24 00:43 | 38.99181 | -110.66452 | 35011 ft | 515 kts | 43° |
| 2026-04-24 00:43 | 39.04199 | -110.59956 | 35003 ft | 515 kts | 43° |
| 2026-04-24 00:44 | 39.09283 | -110.53361 | 35007 ft | 516 kts | 43° |
| 2026-04-24 00:44 | 39.14328 | -110.46802 | 35009 ft | 516 kts | 43° |
| 2026-04-24 00:45 | 39.19341 | -110.40272 | 35008 ft | 516 kts | 43° |
| 2026-04-24 00:45 | 39.24382 | -110.33689 | 35004 ft | 516 kts | 43° |
| 2026-04-24 00:46 | 39.29419 | -110.27099 | 35006 ft | 516 kts | 44° |
| 2026-04-24 00:46 | 39.34455 | -110.20495 | 35016 ft | 516 kts | 44° |
| 2026-04-24 00:47 | 39.39490 | -110.13878 | 35005 ft | 516 kts | 44° |
| 2026-04-24 00:47 | 39.44518 | -110.07257 | 35016 ft | 516 kts | 44° |
| 2026-04-24 00:48 | 39.49545 | -110.00628 | 35014 ft | 516 kts | 44° |
| 2026-04-24 00:48 | 39.54597 | -109.94042 | 35007 ft | 516 kts | 43° |
| 2026-04-24 00:49 | 39.59684 | -109.87489 | 35010 ft | 515 kts | 43° |
| 2026-04-24 00:49 | 39.64763 | -109.80918 | 35006 ft | 515 kts | 43° |
| 2026-04-24 00:50 | 39.69831 | -109.74336 | 35008 ft | 515 kts | 43° |
| 2026-04-24 00:50 | 39.74895 | -109.67741 | 35012 ft | 516 kts | 43° |
| 2026-04-24 00:51 | 39.79952 | -109.61143 | 35012 ft | 516 kts | 43° |
| 2026-04-24 00:51 | 39.85011 | -109.54526 | 35001 ft | 516 kts | 43° |
| 2026-04-24 00:52 | 39.90067 | -109.47898 | 35002 ft | 516 kts | 43° |
| 2026-04-24 00:52 | 39.95122 | -109.41258 | 35011 ft | 516 kts | 43° |
| 2026-04-24 00:53 | 40.00170 | -109.34610 | 35011 ft | 516 kts | 43° |
| 2026-04-24 00:53 | 40.05217 | -109.27952 | 35009 ft | 516 kts | 43° |
| 2026-04-24 00:54 | 40.10257 | -109.21286 | 35006 ft | 516 kts | 43° |
| 2026-04-24 00:54 | 40.15294 | -109.14610 | 35010 ft | 516 kts | 44° |
| 2026-04-24 00:55 | 40.20328 | -109.07923 | 35004 ft | 516 kts | 44° |
| 2026-04-24 00:55 | 40.25358 | -109.01224 | 35004 ft | 516 kts | 44° |
| 2026-04-24 00:56 | 40.30382 | -108.94520 | 35012 ft | 516 kts | 44° |
| 2026-04-24 00:56 | 40.34555 | -108.88939 | 35008 ft | 516 kts | 44° |
| 2026-04-24 00:57 | 40.39576 | -108.82211 | 35011 ft | 516 kts | 44° |
| 2026-04-24 00:58 | 40.47096 | -108.72106 | 35009 ft | 516 kts | 44° |
| 2026-04-24 00:58 | 40.52106 | -108.65355 | 35013 ft | 516 kts | 44° |
| 2026-04-24 00:59 | 40.57106 | -108.58601 | 35009 ft | 516 kts | 44° |
| 2026-04-24 00:59 | 40.62103 | -108.51835 | 35012 ft | 516 kts | 44° |
| 2026-04-24 01:00 | 40.67102 | -108.45053 | 35006 ft | 516 kts | 44° |
| 2026-04-24 01:00 | 40.72093 | -108.38265 | 35006 ft | 516 kts | 44° |
| 2026-04-24 01:01 | 40.77078 | -108.31469 | 35006 ft | 516 kts | 44° |
| 2026-04-24 01:01 | 40.82066 | -108.24654 | 35010 ft | 516 kts | 44° |
| 2026-04-24 01:02 | 40.87051 | -108.17828 | 35014 ft | 516 kts | 44° |
| 2026-04-24 01:02 | 40.92029 | -108.10995 | 35006 ft | 516 kts | 44° |
| 2026-04-24 01:03 | 40.97004 | -108.04152 | 35011 ft | 516 kts | 44° |
| 2026-04-24 01:03 | 41.01959 | -107.97374 | 35012 ft | 515 kts | 43° |
| 2026-04-24 01:04 | 41.07106 | -107.90771 | 35009 ft | 515 kts | 42° |
| 2026-04-24 01:04 | 41.12264 | -107.84166 | 35014 ft | 515 kts | 42° |
| 2026-04-24 01:05 | 41.17396 | -107.77527 | 35002 ft | 515 kts | 42° |
| 2026-04-24 01:05 | 41.22523 | -107.70866 | 35013 ft | 515 kts | 42° |
| 2026-04-24 01:06 | 41.27641 | -107.64198 | 35000 ft | 515 kts | 43° |
| 2026-04-24 01:06 | 41.32754 | -107.57523 | 35010 ft | 516 kts | 43° |
| 2026-04-24 01:07 | 41.37871 | -107.50827 | 35006 ft | 516 kts | 43° |
| 2026-04-24 01:07 | 41.42978 | -107.44128 | 35010 ft | 516 kts | 43° |
| 2026-04-24 01:08 | 41.48090 | -107.37408 | 35013 ft | 516 kts | 43° |
| 2026-04-24 01:08 | 41.53193 | -107.30684 | 35011 ft | 516 kts | 43° |
| 2026-04-24 01:09 | 41.58285 | -107.23957 | 35012 ft | 515 kts | 43° |
| 2026-04-24 01:09 | 41.63380 | -107.17211 | 35011 ft | 515 kts | 43° |
| 2026-04-24 01:10 | 41.68468 | -107.10459 | 35009 ft | 515 kts | 43° |
| 2026-04-24 01:10 | 41.73552 | -107.03695 | 35012 ft | 515 kts | 43° |
| 2026-04-24 01:11 | 41.78632 | -106.96921 | 35006 ft | 515 kts | 43° |
| 2026-04-24 01:11 | 41.83711 | -106.90133 | 35004 ft | 516 kts | 43° |
| 2026-04-24 01:12 | 41.88786 | -106.83335 | 35011 ft | 516 kts | 43° |
| 2026-04-24 01:12 | 41.93854 | -106.76528 | 35012 ft | 516 kts | 43° |
| 2026-04-24 01:13 | 41.98888 | -106.69751 | 35007 ft | 516 kts | 43° |
| 2026-04-24 01:13 | 42.03949 | -106.62922 | 35013 ft | 516 kts | 43° |
| 2026-04-24 01:14 | 42.09013 | -106.56074 | 35011 ft | 516 kts | 43° |
| 2026-04-24 01:14 | 42.14068 | -106.49220 | 35014 ft | 516 kts | 43° |
| 2026-04-24 01:15 | 42.19117 | -106.42357 | 35005 ft | 516 kts | 43° |
| 2026-04-24 01:15 | 42.24168 | -106.35476 | 35008 ft | 516 kts | 43° |
| 2026-04-24 01:16 | 42.29208 | -106.28593 | 35012 ft | 516 kts | 43° |
| 2026-04-24 01:16 | 42.34244 | -106.21700 | 35003 ft | 516 kts | 43° |
| 2026-04-24 01:17 | 42.39278 | -106.14792 | 35012 ft | 516 kts | 44° |
| 2026-04-24 01:17 | 42.44309 | -106.07871 | 35004 ft | 516 kts | 44° |
| 2026-04-24 01:18 | 42.49363 | -106.00978 | 35008 ft | 515 kts | 40° |
| 2026-04-24 01:18 | 42.55062 | -105.95167 | 35007 ft | 512 kts | 33° |
| 2026-04-24 01:19 | 42.60870 | -105.89577 | 35001 ft | 512 kts | 33° |
| 2026-04-24 01:19 | 42.66681 | -105.83961 | 35008 ft | 512 kts | 33° |
| 2026-04-24 01:20 | 42.72488 | -105.78345 | 35014 ft | 512 kts | 33° |
| 2026-04-24 01:20 | 42.78296 | -105.72716 | 35007 ft | 512 kts | 33° |
| 2026-04-24 01:21 | 42.84060 | -105.67117 | 35005 ft | 512 kts | 33° |
| 2026-04-24 01:21 | 42.89898 | -105.61432 | 35014 ft | 512 kts | 33° |
| 2026-04-24 01:22 | 42.95660 | -105.55808 | 35003 ft | 512 kts | 33° |
| 2026-04-24 01:22 | 43.01451 | -105.50142 | 35011 ft | 512 kts | 33° |
| 2026-04-24 01:23 | 43.07247 | -105.44458 | 35012 ft | 512 kts | 33° |
| 2026-04-24 01:23 | 43.13034 | -105.38770 | 35010 ft | 512 kts | 33° |
| 2026-04-24 01:24 | 43.18820 | -105.33068 | 35005 ft | 512 kts | 33° |
| 2026-04-24 01:24 | 43.24605 | -105.27354 | 35010 ft | 512 kts | 33° |
| 2026-04-24 01:25 | 43.30386 | -105.21631 | 35004 ft | 513 kts | 33° |
| 2026-04-24 01:25 | 43.36169 | -105.15891 | 35008 ft | 513 kts | 33° |
| 2026-04-24 01:26 | 43.41947 | -105.10143 | 35015 ft | 513 kts | 33° |
| 2026-04-24 01:26 | 43.47725 | -105.04381 | 35012 ft | 513 kts | 33° |
| 2026-04-24 01:27 | 43.53496 | -104.98613 | 35013 ft | 513 kts | 33° |
| 2026-04-24 01:27 | 43.59262 | -104.92835 | 35015 ft | 513 kts | 33° |
| 2026-04-24 01:28 | 43.65033 | -104.87038 | 35006 ft | 513 kts | 33° |
| 2026-04-24 01:28 | 43.70794 | -104.81237 | 35005 ft | 513 kts | 33° |
| 2026-04-24 01:29 | 43.76557 | -104.75420 | 35012 ft | 513 kts | 34° |
| 2026-04-24 01:29 | 43.82314 | -104.69595 | 35003 ft | 513 kts | 34° |
| 2026-04-24 01:30 | 43.88070 | -104.63756 | 35013 ft | 513 kts | 34° |
| 2026-04-24 01:30 | 43.93819 | -104.57910 | 35006 ft | 513 kts | 34° |
| 2026-04-24 01:31 | 43.99565 | -104.52054 | 35003 ft | 513 kts | 34° |
| 2026-04-24 01:31 | 44.05314 | -104.46180 | 35013 ft | 513 kts | 34° |
| 2026-04-24 01:32 | 44.11053 | -104.40300 | 35007 ft | 513 kts | 34° |
| 2026-04-24 01:32 | 44.16797 | -104.34402 | 35015 ft | 513 kts | 34° |
| 2026-04-24 01:33 | 44.22500 | -104.28532 | 35012 ft | 513 kts | 34° |
| 2026-04-24 01:33 | 44.28271 | -104.22576 | 35007 ft | 513 kts | 34° |
| 2026-04-24 01:34 | 44.34006 | -104.16643 | 35011 ft | 513 kts | 34° |
| 2026-04-24 01:34 | 44.39733 | -104.10703 | 35014 ft | 513 kts | 34° |
| 2026-04-24 01:35 | 44.45421 | -104.04791 | 35011 ft | 513 kts | 34° |
| 2026-04-24 01:35 | 44.51057 | -103.98665 | 35004 ft | 514 kts | 40° |
| 2026-04-24 01:36 | 44.56302 | -103.91850 | 35004 ft | 514 kts | 40° |
| 2026-04-24 01:36 | 44.61590 | -103.85077 | 35008 ft | 515 kts | 40° |
| 2026-04-24 01:37 | 44.66863 | -103.78280 | 35008 ft | 515 kts | 40° |
| 2026-04-24 01:37 | 44.72129 | -103.71455 | 35013 ft | 515 kts | 40° |
| 2026-04-24 01:38 | 44.77390 | -103.64618 | 35010 ft | 515 kts | 40° |
| 2026-04-24 01:38 | 44.82650 | -103.57763 | 35010 ft | 515 kts | 41° |
| 2026-04-24 01:39 | 44.87901 | -103.50904 | 35005 ft | 515 kts | 41° |
| 2026-04-24 01:39 | 44.93150 | -103.44029 | 35013 ft | 515 kts | 41° |
| 2026-04-24 01:40 | 44.98398 | -103.37138 | 35006 ft | 515 kts | 41° |
| 2026-04-24 01:40 | 45.03640 | -103.30236 | 35001 ft | 515 kts | 41° |
| 2026-04-24 01:41 | 45.08874 | -103.23326 | 35000 ft | 515 kts | 41° |
| 2026-04-24 01:41 | 45.14107 | -103.16400 | 35012 ft | 515 kts | 41° |
| 2026-04-24 01:42 | 45.19332 | -103.09466 | 35013 ft | 515 kts | 41° |
| 2026-04-24 01:42 | 45.24559 | -103.02511 | 35013 ft | 515 kts | 41° |
| 2026-04-24 01:43 | 45.29780 | -102.95545 | 35012 ft | 515 kts | 41° |
| 2026-04-24 01:43 | 45.34998 | -102.88565 | 35014 ft | 515 kts | 41° |
| 2026-04-24 01:44 | 45.40179 | -102.81616 | 35013 ft | 515 kts | 41° |
| 2026-04-24 01:44 | 45.45389 | -102.74610 | 35009 ft | 515 kts | 41° |
| 2026-04-24 01:45 | 45.50592 | -102.67594 | 35003 ft | 515 kts | 41° |
| 2026-04-24 01:45 | 45.54950 | -102.61704 | 35013 ft | 515 kts | 41° |
| 2026-04-24 01:46 | 45.60145 | -102.54665 | 35008 ft | 515 kts | 41° |
| 2026-04-24 01:46 | 45.65302 | -102.47657 | 35013 ft | 515 kts | 41° |
| 2026-04-24 01:47 | 45.70489 | -102.40591 | 35013 ft | 515 kts | 41° |
| 2026-04-24 01:47 | 45.75676 | -102.33507 | 35013 ft | 515 kts | 41° |
| 2026-04-24 01:48 | 45.80855 | -102.26413 | 35004 ft | 515 kts | 41° |
| 2026-04-24 01:48 | 45.86035 | -102.19299 | 35008 ft | 515 kts | 42° |
| 2026-04-24 01:49 | 45.91207 | -102.12176 | 35010 ft | 515 kts | 42° |
| 2026-04-24 01:49 | 45.96375 | -102.05042 | 35008 ft | 515 kts | 42° |
| 2026-04-24 01:50 | 46.01547 | -101.97915 | 35013 ft | 515 kts | 40° |
| 2026-04-24 01:50 | 46.06892 | -101.91063 | 35011 ft | 514 kts | 39° |
| 2026-04-24 01:51 | 46.12257 | -101.84237 | 35004 ft | 515 kts | 39° |
| 2026-04-24 01:51 | 46.17601 | -101.77355 | 35006 ft | 515 kts | 40° |
| 2026-04-24 01:52 | 46.22931 | -101.70452 | 35014 ft | 515 kts | 40° |
| 2026-04-24 01:52 | 46.28255 | -101.63535 | 35010 ft | 515 kts | 40° |
| 2026-04-24 01:53 | 46.33575 | -101.56605 | 35009 ft | 515 kts | 40° |
| 2026-04-24 01:53 | 46.38891 | -101.49663 | 35009 ft | 515 kts | 40° |
| 2026-04-24 01:54 | 46.44205 | -101.42703 | 35013 ft | 515 kts | 40° |
| 2026-04-24 01:54 | 46.49512 | -101.35735 | 35008 ft | 515 kts | 40° |
| 2026-04-24 01:55 | 46.54813 | -101.28754 | 35013 ft | 515 kts | 40° |
| 2026-04-24 01:55 | 46.60117 | -101.21750 | 35009 ft | 515 kts | 40° |
| 2026-04-24 01:56 | 46.65409 | -101.14744 | 35013 ft | 515 kts | 40° |
| 2026-04-24 01:56 | 46.70702 | -101.07715 | 35009 ft | 515 kts | 40° |
| 2026-04-24 01:57 | 46.75990 | -101.00674 | 35013 ft | 515 kts | 40° |
| 2026-04-24 01:57 | 46.81274 | -100.93620 | 35007 ft | 515 kts | 40° |
| 2026-04-24 01:58 | 46.86516 | -100.86602 | 35004 ft | 515 kts | 40° |
| 2026-04-24 01:58 | 46.91791 | -100.79519 | 35010 ft | 515 kts | 40° |
| 2026-04-24 01:59 | 46.97100 | -100.72370 | 35007 ft | 515 kts | 40° |
| 2026-04-24 01:59 | 47.02364 | -100.65264 | 35014 ft | 515 kts | 40° |
| 2026-04-24 02:00 | 47.07597 | -100.58179 | 35013 ft | 515 kts | 40° |
| 2026-04-24 02:00 | 47.12853 | -100.51042 | 35012 ft | 515 kts | 41° |
| 2026-04-24 02:01 | 47.18110 | -100.43884 | 35015 ft | 515 kts | 41° |
| 2026-04-24 02:01 | 47.23362 | -100.36713 | 35012 ft | 515 kts | 41° |
| 2026-04-24 02:02 | 47.28605 | -100.29533 | 35005 ft | 515 kts | 41° |
| 2026-04-24 02:02 | 47.33847 | -100.22334 | 35011 ft | 515 kts | 41° |
| 2026-04-24 02:03 | 47.41701 | -100.11511 | 35006 ft | 515 kts | 41° |
| 2026-04-24 02:03 | 47.46926 | -100.04284 | 35000 ft | 515 kts | 41° |
| 2026-04-24 02:04 | 47.52397 | -99.97392 | 35010 ft | 512 kts | 33° |
| 2026-04-24 02:04 | 47.58130 | -99.91234 | 35010 ft | 512 kts | 33° |
| 2026-04-24 02:05 | 47.63881 | -99.85007 | 35008 ft | 513 kts | 34° |
| 2026-04-24 02:05 | 47.69639 | -99.78756 | 35014 ft | 513 kts | 34° |
| 2026-04-24 02:06 | 47.75391 | -99.72490 | 35013 ft | 513 kts | 34° |
| 2026-04-24 02:06 | 47.81145 | -99.66204 | 35006 ft | 513 kts | 34° |
| 2026-04-24 02:07 | 47.86891 | -99.59910 | 35011 ft | 513 kts | 34° |
| 2026-04-24 02:07 | 47.92635 | -99.53600 | 35013 ft | 513 kts | 34° |
| 2026-04-24 02:08 | 47.98373 | -99.47278 | 35013 ft | 513 kts | 34° |
| 2026-04-24 02:08 | 48.04110 | -99.40941 | 35008 ft | 513 kts | 34° |
| 2026-04-24 02:09 | 48.09839 | -99.34593 | 35009 ft | 513 kts | 34° |
| 2026-04-24 02:09 | 48.15571 | -99.28225 | 35010 ft | 513 kts | 34° |
| 2026-04-24 02:10 | 48.21291 | -99.21851 | 35007 ft | 513 kts | 34° |
| 2026-04-24 02:10 | 48.27010 | -99.15460 | 35002 ft | 513 kts | 34° |
| 2026-04-24 02:11 | 48.32734 | -99.09046 | 35009 ft | 513 kts | 34° |
| 2026-04-24 02:11 | 48.38442 | -99.02632 | 35007 ft | 513 kts | 34° |
| 2026-04-24 02:12 | 48.44152 | -98.96196 | 35004 ft | 513 kts | 34° |
| 2026-04-24 02:12 | 48.49860 | -98.89743 | 35004 ft | 513 kts | 34° |
| 2026-04-24 02:13 | 48.55564 | -98.83277 | 35013 ft | 513 kts | 34° |
| 2026-04-24 02:13 | 48.61267 | -98.76793 | 35005 ft | 513 kts | 34° |
| 2026-04-24 02:14 | 48.66961 | -98.70301 | 35011 ft | 513 kts | 34° |
| 2026-04-24 02:14 | 48.72659 | -98.63785 | 35007 ft | 513 kts | 34° |
| 2026-04-24 02:15 | 48.78345 | -98.57264 | 35013 ft | 513 kts | 35° |
| 2026-04-24 02:15 | 48.84030 | -98.50726 | 35000 ft | 513 kts | 35° |
| 2026-04-24 02:16 | 48.89715 | -98.44168 | 35006 ft | 513 kts | 35° |
| 2026-04-24 02:16 | 48.95395 | -98.37597 | 35008 ft | 513 kts | 35° |
| 2026-04-24 02:17 | 49.01074 | -98.31008 | 35009 ft | 513 kts | 35° |
| 2026-04-24 02:17 | 49.06743 | -98.24411 | 35013 ft | 513 kts | 35° |
| 2026-04-24 02:18 | 49.12408 | -98.17798 | 35013 ft | 513 kts | 35° |
| 2026-04-24 02:18 | 49.18078 | -98.11162 | 35003 ft | 513 kts | 35° |
| 2026-04-24 02:19 | 49.23743 | -98.04510 | 35010 ft | 513 kts | 35° |
| 2026-04-24 02:19 | 49.29361 | -97.97894 | 35005 ft | 513 kts | 35° |
| 2026-04-24 02:20 | 49.35015 | -97.91216 | 35014 ft | 513 kts | 35° |
| 2026-04-24 02:20 | 49.40666 | -97.84523 | 35012 ft | 513 kts | 35° |
| 2026-04-24 02:21 | 49.46313 | -97.77813 | 35002 ft | 513 kts | 35° |
| 2026-04-24 02:21 | 49.51959 | -97.71085 | 35013 ft | 513 kts | 35° |
| 2026-04-24 02:22 | 49.57597 | -97.64345 | 35008 ft | 513 kts | 36° |
| 2026-04-24 02:22 | 49.63231 | -97.57590 | 35005 ft | 513 kts | 36° |
| 2026-04-24 02:23 | 49.68868 | -97.50812 | 35007 ft | 513 kts | 36° |
| 2026-04-24 02:23 | 49.74494 | -97.44027 | 35012 ft | 513 kts | 36° |
| 2026-04-24 02:24 | 49.80117 | -97.37223 | 35011 ft | 513 kts | 36° |
| 2026-04-24 02:24 | 49.85742 | -97.30401 | 35005 ft | 513 kts | 36° |
| 2026-04-24 02:25 | 49.91304 | -97.23445 | 35006 ft | 514 kts | 40° |
| 2026-04-24 02:25 | 49.96386 | -97.15602 | 35006 ft | 515 kts | 43° |
| 2026-04-24 02:26 | 50.01480 | -97.07777 | 35011 ft | 515 kts | 43° |
| 2026-04-24 02:26 | 50.06543 | -96.99978 | 35011 ft | 515 kts | 43° |
| 2026-04-24 02:27 | 50.11658 | -96.92056 | 35013 ft | 516 kts | 43° |
| 2026-04-24 02:27 | 50.16706 | -96.84208 | 35014 ft | 516 kts | 43° |
| 2026-04-24 02:28 | 50.20956 | -96.77573 | 35008 ft | 516 kts | 43° |
| 2026-04-24 02:28 | 50.26018 | -96.69642 | 35012 ft | 516 kts | 43° |
| 2026-04-24 02:29 | 50.31897 | -96.60397 | 35007 ft | 516 kts | 43° |
| 2026-04-24 02:29 | 50.36131 | -96.53718 | 35007 ft | 516 kts | 43° |
| 2026-04-24 02:30 | 50.41178 | -96.45733 | 35005 ft | 516 kts | 43° |
| 2026-04-24 02:30 | 50.46220 | -96.37730 | 35006 ft | 516 kts | 43° |
| 2026-04-24 02:31 | 50.51257 | -96.29711 | 35007 ft | 516 kts | 44° |
| 2026-04-24 02:31 | 50.56289 | -96.21673 | 35007 ft | 516 kts | 44° |
| 2026-04-24 02:32 | 50.61313 | -96.13622 | 35005 ft | 516 kts | 44° |
| 2026-04-24 02:32 | 50.66297 | -96.05608 | 35009 ft | 516 kts | 44° |
| 2026-04-24 02:33 | 50.71312 | -95.97519 | 35012 ft | 516 kts | 44° |
| 2026-04-24 02:33 | 50.76323 | -95.89409 | 35010 ft | 516 kts | 44° |
| 2026-04-24 02:34 | 50.81329 | -95.81282 | 35007 ft | 516 kts | 44° |
| 2026-04-24 02:34 | 50.86328 | -95.73140 | 35011 ft | 516 kts | 44° |
| 2026-04-24 02:35 | 50.91318 | -95.64985 | 35013 ft | 516 kts | 44° |
| 2026-04-24 02:35 | 50.96308 | -95.56803 | 35010 ft | 516 kts | 44° |
| 2026-04-24 02:36 | 51.01292 | -95.48605 | 35013 ft | 516 kts | 44° |
| 2026-04-24 02:36 | 51.06271 | -95.40386 | 35010 ft | 516 kts | 44° |
| 2026-04-24 02:37 | 51.11240 | -95.32159 | 35010 ft | 516 kts | 44° |
| 2026-04-24 02:37 | 51.16211 | -95.23899 | 35000 ft | 516 kts | 44° |
| 2026-04-24 02:38 | 51.21169 | -95.15633 | 35004 ft | 516 kts | 44° |
| 2026-04-24 02:38 | 51.26123 | -95.07348 | 35010 ft | 516 kts | 44° |
| 2026-04-24 02:39 | 51.31069 | -94.99049 | 35006 ft | 516 kts | 45° |
| 2026-04-24 02:39 | 51.36012 | -94.90726 | 35006 ft | 516 kts | 45° |
| 2026-04-24 02:40 | 51.40949 | -94.82385 | 35012 ft | 516 kts | 45° |
| 2026-04-24 02:40 | 51.45879 | -94.74028 | 35013 ft | 516 kts | 45° |
| 2026-04-24 02:41 | 51.50804 | -94.65651 | 35011 ft | 516 kts | 45° |
| 2026-04-24 02:41 | 51.55724 | -94.57255 | 35008 ft | 516 kts | 45° |
| 2026-04-24 02:42 | 51.60606 | -94.48896 | 35010 ft | 516 kts | 45° |
| 2026-04-24 02:42 | 51.65512 | -94.40468 | 35009 ft | 516 kts | 45° |
| 2026-04-24 02:43 | 51.70412 | -94.32018 | 35007 ft | 516 kts | 45° |
| 2026-04-24 02:43 | 51.75307 | -94.23550 | 35003 ft | 516 kts | 45° |
| 2026-04-24 02:44 | 51.80197 | -94.15063 | 35012 ft | 516 kts | 45° |
| 2026-04-24 02:44 | 51.85082 | -94.06554 | 35012 ft | 516 kts | 45° |
| 2026-04-24 02:45 | 51.89960 | -93.98029 | 35009 ft | 516 kts | 45° |
| 2026-04-24 02:45 | 51.94833 | -93.89483 | 35012 ft | 516 kts | 45° |
| 2026-04-24 02:46 | 51.99696 | -93.80926 | 35012 ft | 516 kts | 45° |
| 2026-04-24 02:46 | 52.04558 | -93.72341 | 35009 ft | 516 kts | 46° |
| 2026-04-24 02:47 | 52.09413 | -93.63738 | 35011 ft | 516 kts | 46° |
| 2026-04-24 02:47 | 52.14261 | -93.55118 | 35005 ft | 516 kts | 46° |
| 2026-04-24 02:48 | 52.19100 | -93.46483 | 35012 ft | 516 kts | 46° |
| 2026-04-24 02:48 | 52.23938 | -93.37820 | 35012 ft | 516 kts | 46° |
| 2026-04-24 02:49 | 52.28767 | -93.29144 | 35005 ft | 516 kts | 46° |
| 2026-04-24 02:49 | 52.33587 | -93.20453 | 35012 ft | 516 kts | 46° |
| 2026-04-24 02:50 | 52.38405 | -93.11736 | 35012 ft | 516 kts | 46° |
| 2026-04-24 02:50 | 52.43215 | -93.03001 | 35005 ft | 516 kts | 46° |
| 2026-04-24 02:51 | 52.48019 | -92.94247 | 35006 ft | 516 kts | 46° |
| 2026-04-24 02:51 | 52.52820 | -92.85467 | 35012 ft | 516 kts | 46° |
| 2026-04-24 02:52 | 52.57611 | -92.76676 | 35012 ft | 516 kts | 46° |
| 2026-04-24 02:52 | 52.62364 | -92.67923 | 35011 ft | 516 kts | 46° |
| 2026-04-24 02:53 | 52.67143 | -92.59091 | 35012 ft | 516 kts | 46° |
| 2026-04-24 02:53 | 52.71917 | -92.50236 | 35012 ft | 516 kts | 47° |
| 2026-04-24 02:54 | 52.76681 | -92.41368 | 35004 ft | 517 kts | 47° |
| 2026-04-24 02:54 | 52.81441 | -92.32476 | 35010 ft | 517 kts | 47° |
| 2026-04-24 02:55 | 52.86193 | -92.23566 | 35003 ft | 517 kts | 47° |
| 2026-04-24 02:55 | 52.90943 | -92.14629 | 35008 ft | 517 kts | 47° |
| 2026-04-24 02:56 | 52.95681 | -92.05683 | 35008 ft | 517 kts | 47° |
| 2026-04-24 02:56 | 53.00414 | -91.96712 | 35010 ft | 517 kts | 47° |
| 2026-04-24 02:57 | 53.05141 | -91.87721 | 35008 ft | 517 kts | 47° |
| 2026-04-24 02:57 | 53.09860 | -91.78713 | 35009 ft | 517 kts | 47° |
| 2026-04-24 02:58 | 53.14574 | -91.69680 | 35012 ft | 517 kts | 47° |
| 2026-04-24 02:58 | 53.19282 | -91.60627 | 35010 ft | 517 kts | 47° |
| 2026-04-24 02:59 | 53.23981 | -91.51558 | 35012 ft | 517 kts | 47° |
| 2026-04-24 02:59 | 53.28645 | -91.42524 | 35008 ft | 517 kts | 47° |
| 2026-04-24 03:00 | 53.33330 | -91.33415 | 35012 ft | 517 kts | 47° |
| 2026-04-24 03:00 | 53.38009 | -91.24286 | 35012 ft | 517 kts | 48° |
| 2026-04-24 03:01 | 53.42685 | -91.15127 | 35004 ft | 517 kts | 48° |
| 2026-04-24 03:01 | 53.47347 | -91.05963 | 35011 ft | 517 kts | 48° |
| 2026-04-24 03:02 | 53.52006 | -90.96770 | 35011 ft | 517 kts | 48° |
| 2026-04-24 03:02 | 53.56659 | -90.87556 | 35008 ft | 517 kts | 48° |
| 2026-04-24 03:03 | 53.61301 | -90.78327 | 35011 ft | 517 kts | 48° |
| 2026-04-24 03:03 | 53.65941 | -90.69070 | 35008 ft | 517 kts | 48° |
| 2026-04-24 03:04 | 53.70572 | -90.59796 | 35006 ft | 517 kts | 48° |
| 2026-04-24 03:04 | 53.75195 | -90.50503 | 35012 ft | 517 kts | 48° |
| 2026-04-24 03:05 | 53.79810 | -90.41189 | 35010 ft | 517 kts | 49° |
| 2026-04-24 03:05 | 53.84426 | -90.31843 | 35010 ft | 517 kts | 49° |
| 2026-04-24 03:06 | 53.89034 | -90.22492 | 35012 ft | 517 kts | 49° |
| 2026-04-24 03:06 | 53.93637 | -90.13122 | 35007 ft | 517 kts | 49° |
| 2026-04-24 03:07 | 53.98204 | -90.03793 | 35012 ft | 517 kts | 49° |
| 2026-04-24 03:07 | 54.02540 | -89.93935 | 35011 ft | 518 kts | 54° |
| 2026-04-24 03:08 | 54.08825 | -89.79089 | 35011 ft | 518 kts | 53° |
| 2026-04-24 03:09 | 54.13046 | -89.69156 | 35011 ft | 518 kts | 53° |
| 2026-04-24 03:09 | 54.17252 | -89.59184 | 35010 ft | 518 kts | 53° |
| 2026-04-24 03:10 | 54.21450 | -89.49180 | 35008 ft | 518 kts | 53° |
| 2026-04-24 03:10 | 54.25635 | -89.39152 | 35007 ft | 518 kts | 53° |
| 2026-04-24 03:11 | 54.29806 | -89.29107 | 35010 ft | 518 kts | 53° |
| 2026-04-24 03:11 | 54.33971 | -89.19032 | 35011 ft | 518 kts | 53° |
| 2026-04-24 03:12 | 54.38126 | -89.08941 | 35012 ft | 518 kts | 53° |
| 2026-04-24 03:12 | 54.42273 | -88.98830 | 35012 ft | 518 kts | 53° |
| 2026-04-24 03:13 | 54.46407 | -88.88709 | 35008 ft | 518 kts | 54° |
| 2026-04-24 03:13 | 54.50538 | -88.78554 | 35012 ft | 518 kts | 54° |
| 2026-04-24 03:14 | 54.54658 | -88.68382 | 35003 ft | 518 kts | 54° |
| 2026-04-24 03:14 | 54.58769 | -88.58194 | 35011 ft | 518 kts | 54° |
| 2026-04-24 03:15 | 54.62875 | -88.47977 | 35011 ft | 518 kts | 54° |
| 2026-04-24 03:15 | 54.66972 | -88.37739 | 35009 ft | 518 kts | 54° |
| 2026-04-24 03:16 | 54.71058 | -88.27484 | 35012 ft | 518 kts | 54° |
| 2026-04-24 03:16 | 54.74443 | -88.18959 | 35011 ft | 518 kts | 54° |
| 2026-04-24 03:17 | 54.78518 | -88.08656 | 35001 ft | 518 kts | 54° |
| 2026-04-24 03:17 | 54.82578 | -87.98346 | 35007 ft | 518 kts | 54° |
| 2026-04-24 03:18 | 54.86633 | -87.88009 | 35009 ft | 518 kts | 54° |
| 2026-04-24 03:18 | 54.90681 | -87.77646 | 35012 ft | 518 kts | 54° |
| 2026-04-24 03:19 | 54.94716 | -87.67273 | 35012 ft | 518 kts | 55° |
| 2026-04-24 03:19 | 54.98745 | -87.56869 | 35010 ft | 518 kts | 55° |
| 2026-04-24 03:20 | 55.02764 | -87.46449 | 35012 ft | 518 kts | 55° |
| 2026-04-24 03:20 | 55.06774 | -87.36010 | 35009 ft | 518 kts | 55° |
| 2026-04-24 03:21 | 55.10775 | -87.25548 | 35008 ft | 518 kts | 55° |
| 2026-04-24 03:21 | 55.14743 | -87.15128 | 35010 ft | 518 kts | 55° |
| 2026-04-24 03:22 | 55.18727 | -87.04625 | 35012 ft | 518 kts | 55° |
| 2026-04-24 03:22 | 55.22725 | -86.94034 | 35005 ft | 518 kts | 55° |
| 2026-04-24 03:23 | 55.26664 | -86.83556 | 35012 ft | 518 kts | 56° |
| 2026-04-24 03:23 | 55.30649 | -86.72912 | 35007 ft | 518 kts | 56° |
| 2026-04-24 03:24 | 55.34570 | -86.62394 | 35008 ft | 518 kts | 56° |
| 2026-04-24 03:24 | 55.38508 | -86.51785 | 35007 ft | 518 kts | 56° |
| 2026-04-24 03:25 | 55.42438 | -86.41152 | 35008 ft | 518 kts | 56° |
| 2026-04-24 03:25 | 55.46357 | -86.30499 | 35011 ft | 518 kts | 56° |
| 2026-04-24 03:26 | 55.50269 | -86.19823 | 35006 ft | 518 kts | 56° |
| 2026-04-24 03:26 | 55.54171 | -86.09124 | 35012 ft | 518 kts | 56° |
| 2026-04-24 03:27 | 55.58062 | -85.98410 | 35009 ft | 518 kts | 56° |
| 2026-04-24 03:27 | 55.61944 | -85.87674 | 35012 ft | 518 kts | 56° |
| 2026-04-24 03:28 | 55.65819 | -85.76911 | 35007 ft | 518 kts | 56° |
| 2026-04-24 03:28 | 55.69687 | -85.66119 | 35009 ft | 518 kts | 57° |
| 2026-04-24 03:29 | 55.73543 | -85.55313 | 35011 ft | 518 kts | 57° |
| 2026-04-24 03:29 | 55.77388 | -85.44490 | 35011 ft | 518 kts | 57° |
| 2026-04-24 03:30 | 55.81227 | -85.33635 | 35008 ft | 518 kts | 57° |
| 2026-04-24 03:30 | 55.85054 | -85.22764 | 35008 ft | 518 kts | 57° |
| 2026-04-24 03:31 | 55.88871 | -85.11874 | 35009 ft | 518 kts | 57° |
| 2026-04-24 03:31 | 55.92679 | -85.00960 | 35010 ft | 518 kts | 57° |
| 2026-04-24 03:32 | 55.96477 | -84.90029 | 35008 ft | 518 kts | 57° |
| 2026-04-24 03:32 | 56.00269 | -84.79064 | 35012 ft | 518 kts | 57° |
| 2026-04-24 03:33 | 56.04044 | -84.68098 | 35009 ft | 518 kts | 57° |
| 2026-04-24 03:33 | 56.07816 | -84.57089 | 35012 ft | 518 kts | 57° |
| 2026-04-24 03:34 | 56.11577 | -84.46066 | 35004 ft | 518 kts | 58° |
| 2026-04-24 03:34 | 56.15325 | -84.35028 | 35002 ft | 519 kts | 58° |
| 2026-04-24 03:35 | 56.19067 | -84.23959 | 35012 ft | 519 kts | 58° |
| 2026-04-24 03:35 | 56.22796 | -84.12875 | 35006 ft | 519 kts | 58° |
| 2026-04-24 03:36 | 56.26517 | -84.01766 | 35012 ft | 519 kts | 58° |
| 2026-04-24 03:36 | 56.30228 | -83.90634 | 35011 ft | 519 kts | 58° |
| 2026-04-24 03:37 | 56.33927 | -83.79487 | 35012 ft | 519 kts | 58° |
| 2026-04-24 03:37 | 56.37619 | -83.68310 | 35008 ft | 519 kts | 58° |
| 2026-04-24 03:38 | 56.41298 | -83.57115 | 35004 ft | 519 kts | 58° |
| 2026-04-24 03:38 | 56.44947 | -83.45965 | 35012 ft | 519 kts | 58° |
| 2026-04-24 03:39 | 56.48608 | -83.34724 | 35008 ft | 519 kts | 58° |
| 2026-04-24 03:39 | 56.52259 | -83.23461 | 35012 ft | 519 kts | 59° |
| 2026-04-24 03:40 | 56.55898 | -83.12183 | 35008 ft | 519 kts | 59° |
| 2026-04-24 03:40 | 56.59529 | -83.00877 | 35010 ft | 519 kts | 59° |
| 2026-04-24 03:41 | 56.63149 | -82.89550 | 35012 ft | 519 kts | 59° |
| 2026-04-24 03:41 | 56.66759 | -82.78202 | 35007 ft | 519 kts | 59° |
| 2026-04-24 03:42 | 56.70360 | -82.66824 | 35003 ft | 519 kts | 59° |
| 2026-04-24 03:42 | 56.73950 | -82.55429 | 35011 ft | 519 kts | 59° |
| 2026-04-24 03:43 | 56.77528 | -82.44017 | 35009 ft | 519 kts | 59° |
| 2026-04-24 03:43 | 56.81097 | -82.32578 | 35012 ft | 519 kts | 59° |
| 2026-04-24 03:44 | 56.84657 | -82.21113 | 35008 ft | 519 kts | 59° |
| 2026-04-24 03:44 | 56.88202 | -82.09641 | 35010 ft | 519 kts | 60° |
| 2026-04-24 03:45 | 56.91740 | -81.98136 | 35012 ft | 519 kts | 60° |
| 2026-04-24 03:45 | 56.95269 | -81.86604 | 35009 ft | 519 kts | 60° |
| 2026-04-24 03:46 | 56.98783 | -81.75063 | 35008 ft | 519 kts | 60° |
| 2026-04-24 03:46 | 57.02289 | -81.63493 | 35011 ft | 519 kts | 60° |
| 2026-04-24 03:47 | 57.05786 | -81.51896 | 35010 ft | 519 kts | 60° |
| 2026-04-24 03:47 | 57.09272 | -81.40279 | 35008 ft | 519 kts | 60° |
| 2026-04-24 03:48 | 57.12744 | -81.28649 | 35012 ft | 519 kts | 60° |
| 2026-04-24 03:48 | 57.16208 | -81.16986 | 35008 ft | 519 kts | 60° |
| 2026-04-24 03:49 | 57.19660 | -81.05308 | 35011 ft | 519 kts | 60° |
| 2026-04-24 03:49 | 57.23100 | -80.93611 | 35006 ft | 519 kts | 61° |
| 2026-04-24 03:50 | 57.26531 | -80.81888 | 35006 ft | 519 kts | 61° |
| 2026-04-24 03:50 | 57.29952 | -80.70138 | 35012 ft | 519 kts | 61° |
| 2026-04-24 03:51 | 57.33361 | -80.58368 | 35008 ft | 519 kts | 61° |
| 2026-04-24 03:51 | 57.36758 | -80.46585 | 35010 ft | 519 kts | 61° |
| 2026-04-24 03:52 | 57.40153 | -80.34777 | 35011 ft | 519 kts | 61° |
| 2026-04-24 03:52 | 57.43539 | -80.22954 | 35010 ft | 519 kts | 61° |
| 2026-04-24 03:53 | 57.46914 | -80.11112 | 35009 ft | 519 kts | 61° |
| 2026-04-24 03:53 | 57.50271 | -79.99227 | 35010 ft | 519 kts | 62° |
| 2026-04-24 03:54 | 57.53839 | -79.87574 | 35009 ft | 518 kts | 57° |
| 2026-04-24 03:54 | 57.57614 | -79.76144 | 35007 ft | 518 kts | 58° |
| 2026-04-24 03:55 | 57.61321 | -79.64711 | 35009 ft | 519 kts | 58° |
| 2026-04-24 03:55 | 57.65016 | -79.53165 | 35011 ft | 519 kts | 58° |
| 2026-04-24 03:56 | 57.68704 | -79.41574 | 35011 ft | 519 kts | 58° |
| 2026-04-24 03:56 | 57.72377 | -79.29963 | 35011 ft | 519 kts | 58° |
| 2026-04-24 03:57 | 57.76034 | -79.18320 | 35013 ft | 519 kts | 59° |
| 2026-04-24 03:57 | 57.79680 | -79.06647 | 35013 ft | 519 kts | 59° |
| 2026-04-24 03:58 | 57.83311 | -78.94962 | 35003 ft | 519 kts | 59° |
| 2026-04-24 03:58 | 57.86933 | -78.83248 | 35012 ft | 519 kts | 59° |
| 2026-04-24 03:59 | 57.90544 | -78.71509 | 35010 ft | 519 kts | 59° |
| 2026-04-24 03:59 | 57.94143 | -78.59752 | 35010 ft | 519 kts | 59° |
| 2026-04-24 04:00 | 57.97734 | -78.47964 | 35009 ft | 519 kts | 59° |
| 2026-04-24 04:00 | 58.01309 | -78.36165 | 35003 ft | 519 kts | 59° |
| 2026-04-24 04:01 | 58.04277 | -78.26327 | 35009 ft | 519 kts | 59° |
| 2026-04-24 04:01 | 58.07835 | -78.14475 | 35006 ft | 519 kts | 59° |
| 2026-04-24 04:02 | 58.11979 | -78.00597 | 35009 ft | 519 kts | 60° |
| 2026-04-24 04:02 | 58.14918 | -77.90704 | 35009 ft | 519 kts | 60° |
| 2026-04-24 04:03 | 58.18445 | -77.78774 | 35009 ft | 519 kts | 60° |
| 2026-04-24 04:03 | 58.21958 | -77.66832 | 35007 ft | 519 kts | 60° |
| 2026-04-24 04:04 | 58.25462 | -77.54858 | 35012 ft | 519 kts | 60° |
| 2026-04-24 04:04 | 58.28954 | -77.42864 | 35011 ft | 519 kts | 60° |
| 2026-04-24 04:05 | 58.32437 | -77.30836 | 35010 ft | 519 kts | 60° |
| 2026-04-24 04:05 | 58.35910 | -77.18782 | 35004 ft | 519 kts | 60° |
| 2026-04-24 04:06 | 58.39367 | -77.06720 | 35013 ft | 519 kts | 60° |
| 2026-04-24 04:06 | 58.42813 | -76.94630 | 35004 ft | 519 kts | 60° |
| 2026-04-24 04:07 | 58.46249 | -76.82515 | 35011 ft | 519 kts | 61° |
| 2026-04-24 04:07 | 58.49675 | -76.70371 | 35010 ft | 519 kts | 61° |
| 2026-04-24 04:08 | 58.53087 | -76.58215 | 35009 ft | 519 kts | 61° |
| 2026-04-24 04:08 | 58.56488 | -76.46032 | 35009 ft | 519 kts | 61° |
| 2026-04-24 04:09 | 58.59877 | -76.33825 | 35008 ft | 519 kts | 61° |
| 2026-04-24 04:09 | 58.63255 | -76.21592 | 35010 ft | 519 kts | 61° |
| 2026-04-24 04:10 | 58.66623 | -76.09331 | 35013 ft | 519 kts | 62° |
| 2026-04-24 04:10 | 58.69978 | -75.97051 | 35008 ft | 519 kts | 62° |
| 2026-04-24 04:11 | 58.74989 | -75.78585 | 35010 ft | 519 kts | 62° |
| 2026-04-24 04:11 | 58.78318 | -75.66235 | 35013 ft | 519 kts | 62° |
| 2026-04-24 04:12 | 58.81633 | -75.53866 | 35010 ft | 519 kts | 62° |
| 2026-04-24 04:12 | 58.84935 | -75.41479 | 35008 ft | 519 kts | 62° |
| 2026-04-24 04:13 | 58.88226 | -75.29068 | 35009 ft | 519 kts | 62° |
| 2026-04-24 04:13 | 58.91503 | -75.16638 | 35007 ft | 519 kts | 62° |
| 2026-04-24 04:14 | 58.94749 | -75.04260 | 35009 ft | 519 kts | 62° |
| 2026-04-24 04:14 | 58.98006 | -74.91767 | 35005 ft | 519 kts | 63° |
| 2026-04-24 04:15 | 59.01248 | -74.79265 | 35010 ft | 519 kts | 63° |
| 2026-04-24 04:15 | 59.04478 | -74.66736 | 35012 ft | 519 kts | 63° |
| 2026-04-24 04:16 | 59.07699 | -74.54177 | 35011 ft | 519 kts | 63° |
| 2026-04-24 04:16 | 59.10906 | -74.41598 | 35012 ft | 519 kts | 63° |
| 2026-04-24 04:17 | 59.14101 | -74.28993 | 35008 ft | 519 kts | 63° |
| 2026-04-24 04:17 | 59.17284 | -74.16366 | 35009 ft | 519 kts | 63° |
| 2026-04-24 04:18 | 59.20453 | -74.03721 | 35011 ft | 519 kts | 63° |
| 2026-04-24 04:18 | 59.23614 | -73.91038 | 35012 ft | 519 kts | 63° |
| 2026-04-24 04:19 | 59.26760 | -73.78340 | 35011 ft | 519 kts | 64° |
| 2026-04-24 04:19 | 59.29892 | -73.65623 | 35000 ft | 519 kts | 64° |
| 2026-04-24 04:20 | 59.33013 | -73.52882 | 35010 ft | 519 kts | 64° |
| 2026-04-24 04:20 | 59.36122 | -73.40111 | 35008 ft | 519 kts | 64° |
| 2026-04-24 04:21 | 59.39220 | -73.27314 | 35009 ft | 519 kts | 64° |
| 2026-04-24 04:21 | 59.42303 | -73.14502 | 35006 ft | 519 kts | 64° |
| 2026-04-24 04:22 | 59.45374 | -73.01663 | 35004 ft | 519 kts | 64° |
| 2026-04-24 04:22 | 59.48433 | -72.88803 | 35010 ft | 519 kts | 64° |
| 2026-04-24 04:23 | 59.51479 | -72.75918 | 35008 ft | 519 kts | 64° |
| 2026-04-24 04:23 | 59.54513 | -72.63005 | 35010 ft | 519 kts | 65° |
| 2026-04-24 04:24 | 59.57535 | -72.50067 | 35007 ft | 519 kts | 65° |
| 2026-04-24 04:24 | 59.60544 | -72.37109 | 35013 ft | 519 kts | 65° |
| 2026-04-24 04:25 | 59.63537 | -72.24137 | 35000 ft | 519 kts | 65° |
| 2026-04-24 04:25 | 59.66520 | -72.11135 | 35000 ft | 519 kts | 65° |
| 2026-04-24 04:26 | 59.69490 | -71.98107 | 35011 ft | 519 kts | 65° |
| 2026-04-24 04:26 | 59.72445 | -71.85066 | 35010 ft | 519 kts | 65° |
| 2026-04-24 04:27 | 59.75390 | -71.71990 | 35003 ft | 519 kts | 65° |
| 2026-04-24 04:27 | 59.78301 | -71.58984 | 35007 ft | 519 kts | 65° |
| 2026-04-24 04:28 | 59.81220 | -71.45859 | 35001 ft | 519 kts | 66° |
| 2026-04-24 04:28 | 59.84125 | -71.32719 | 35010 ft | 519 kts | 66° |
| 2026-04-24 04:29 | 59.87017 | -71.19551 | 35007 ft | 519 kts | 66° |
| 2026-04-24 04:29 | 59.89894 | -71.06374 | 35013 ft | 519 kts | 66° |
| 2026-04-24 04:30 | 59.92780 | -70.93067 | 35013 ft | 519 kts | 66° |
| 2026-04-24 04:30 | 59.95614 | -70.79921 | 35010 ft | 519 kts | 66° |
| 2026-04-24 04:31 | 59.98451 | -70.66673 | 35005 ft | 519 kts | 66° |
| 2026-04-24 04:31 | 60.01276 | -70.53395 | 35010 ft | 519 kts | 66° |
| 2026-04-24 04:32 | 60.04092 | -70.40081 | 35008 ft | 519 kts | 67° |
| 2026-04-24 04:32 | 60.06889 | -70.26766 | 35007 ft | 519 kts | 67° |
| 2026-04-24 04:33 | 60.09676 | -70.13410 | 35011 ft | 519 kts | 67° |
| 2026-04-24 04:33 | 60.12448 | -70.00044 | 35010 ft | 519 kts | 67° |
| 2026-04-24 04:34 | 60.15207 | -69.86650 | 35008 ft | 519 kts | 67° |
| 2026-04-24 04:34 | 60.17952 | -69.73237 | 35006 ft | 519 kts | 67° |
| 2026-04-24 04:35 | 60.20683 | -69.59799 | 35010 ft | 519 kts | 68° |
| 2026-04-24 04:35 | 60.23400 | -69.46348 | 35003 ft | 519 kts | 68° |
| 2026-04-24 04:36 | 60.26106 | -69.32859 | 35012 ft | 519 kts | 68° |
| 2026-04-24 04:36 | 60.28795 | -69.19365 | 35011 ft | 519 kts | 68° |
| 2026-04-24 04:37 | 60.31472 | -69.05839 | 35012 ft | 519 kts | 68° |
| 2026-04-24 04:37 | 60.34136 | -68.92283 | 35013 ft | 519 kts | 68° |
| 2026-04-24 04:38 | 60.36785 | -68.78717 | 35009 ft | 519 kts | 68° |
| 2026-04-24 04:38 | 60.39420 | -68.65125 | 35013 ft | 519 kts | 68° |
| 2026-04-24 04:39 | 60.42043 | -68.51505 | 35006 ft | 519 kts | 69° |
| 2026-04-24 04:39 | 60.44651 | -68.37872 | 35011 ft | 519 kts | 69° |
| 2026-04-24 04:40 | 60.47246 | -68.24207 | 35009 ft | 519 kts | 69° |
| 2026-04-24 04:40 | 60.49828 | -68.10513 | 35008 ft | 520 kts | 69° |
| 2026-04-24 04:41 | 60.52395 | -67.96804 | 35007 ft | 519 kts | 69° |
| 2026-04-24 04:41 | 60.54929 | -67.83179 | 35004 ft | 519 kts | 69° |
| 2026-04-24 04:42 | 60.57466 | -67.69437 | 35012 ft | 519 kts | 69° |
| 2026-04-24 04:42 | 60.59995 | -67.55668 | 35012 ft | 519 kts | 69° |
| 2026-04-24 04:43 | 60.62515 | -67.41891 | 35010 ft | 519 kts | 69° |
| 2026-04-24 04:43 | 60.65023 | -67.28100 | 35013 ft | 519 kts | 69° |
| 2026-04-24 04:44 | 60.67520 | -67.14272 | 35009 ft | 519 kts | 70° |
| 2026-04-24 04:44 | 60.69991 | -67.00422 | 35007 ft | 519 kts | 69° |
| 2026-04-24 04:45 | 60.72728 | -66.86804 | 35006 ft | 519 kts | 65° |
| 2026-04-24 04:45 | 60.75769 | -66.73419 | 35007 ft | 519 kts | 65° |
| 2026-04-24 04:46 | 60.78245 | -66.62235 | 35009 ft | 519 kts | 65° |
| 2026-04-24 04:46 | 60.81171 | -66.48711 | 35011 ft | 519 kts | 66° |
| 2026-04-24 04:47 | 60.84074 | -66.35150 | 35009 ft | 520 kts | 66° |
| 2026-04-24 04:47 | 60.86962 | -66.21573 | 35009 ft | 520 kts | 66° |
| 2026-04-24 04:48 | 60.89840 | -66.07955 | 35013 ft | 519 kts | 66° |
| 2026-04-24 04:48 | 60.92701 | -65.94332 | 35012 ft | 519 kts | 66° |
| 2026-04-24 04:49 | 60.95550 | -65.80672 | 35007 ft | 519 kts | 66° |
| 2026-04-24 04:49 | 60.98383 | -65.67000 | 35009 ft | 519 kts | 66° |
| 2026-04-24 04:50 | 61.01203 | -65.53301 | 35010 ft | 519 kts | 66° |
| 2026-04-24 04:50 | 61.04008 | -65.39581 | 35010 ft | 519 kts | 67° |
| 2026-04-24 04:51 | 61.06800 | -65.25834 | 35008 ft | 519 kts | 67° |
| 2026-04-24 04:51 | 61.09577 | -65.12066 | 35003 ft | 519 kts | 67° |
| 2026-04-24 04:52 | 61.12342 | -64.98262 | 35007 ft | 519 kts | 67° |
| 2026-04-24 04:52 | 61.15092 | -64.84442 | 35009 ft | 519 kts | 67° |
| 2026-04-24 04:53 | 61.17827 | -64.70602 | 35012 ft | 519 kts | 68° |
| 2026-04-24 04:53 | 61.20549 | -64.56729 | 35013 ft | 519 kts | 68° |
| 2026-04-24 04:54 | 61.23256 | -64.42839 | 35011 ft | 519 kts | 68° |
| 2026-04-24 04:54 | 61.25951 | -64.28917 | 35010 ft | 519 kts | 68° |
| 2026-04-24 04:55 | 61.28632 | -64.14966 | 35011 ft | 519 kts | 68° |
| 2026-04-24 04:55 | 61.31295 | -64.01006 | 35011 ft | 519 kts | 68° |
| 2026-04-24 04:56 | 61.33946 | -63.87015 | 35009 ft | 519 kts | 68° |
| 2026-04-24 04:56 | 61.36582 | -63.73004 | 35013 ft | 519 kts | 68° |
| 2026-04-24 04:57 | 61.39202 | -63.58972 | 35008 ft | 519 kts | 69° |
| 2026-04-24 04:57 | 61.41810 | -63.44912 | 35007 ft | 519 kts | 69° |
| 2026-04-24 04:58 | 61.44404 | -63.30821 | 35008 ft | 519 kts | 69° |
| 2026-04-24 04:58 | 61.46965 | -63.16807 | 35010 ft | 519 kts | 69° |
| 2026-04-24 04:59 | 61.49533 | -63.02686 | 35011 ft | 519 kts | 69° |
| 2026-04-24 04:59 | 61.52305 | -62.88721 | 35006 ft | 519 kts | 64° |
| 2026-04-24 05:00 | 61.55368 | -62.75026 | 35007 ft | 519 kts | 64° |
| 2026-04-24 05:00 | 61.58379 | -62.61256 | 35009 ft | 519 kts | 65° |
| 2026-04-24 05:01 | 61.61341 | -62.47415 | 35010 ft | 519 kts | 65° |
| 2026-04-24 05:01 | 61.64280 | -62.33549 | 35006 ft | 519 kts | 65° |
| 2026-04-24 05:02 | 61.67206 | -62.19650 | 35008 ft | 519 kts | 66° |
| 2026-04-24 05:02 | 61.70118 | -62.05727 | 35007 ft | 519 kts | 66° |
| 2026-04-24 05:03 | 61.73015 | -61.91782 | 35012 ft | 519 kts | 66° |
| 2026-04-24 05:03 | 61.75898 | -61.77812 | 35012 ft | 519 kts | 66° |
| 2026-04-24 05:04 | 61.78768 | -61.63810 | 35003 ft | 519 kts | 66° |
| 2026-04-24 05:04 | 61.81622 | -61.49790 | 35009 ft | 519 kts | 66° |
| 2026-04-24 05:05 | 61.84462 | -61.35738 | 35010 ft | 519 kts | 66° |
| 2026-04-24 05:05 | 61.87290 | -61.21656 | 35011 ft | 519 kts | 66° |
| 2026-04-24 05:06 | 61.90100 | -61.07562 | 35008 ft | 519 kts | 67° |
| 2026-04-24 05:06 | 61.92898 | -60.93427 | 35009 ft | 519 kts | 67° |
| 2026-04-24 05:07 | 61.95681 | -60.79272 | 35005 ft | 519 kts | 67° |
| 2026-04-24 05:07 | 61.98448 | -60.65097 | 35011 ft | 519 kts | 67° |
| 2026-04-24 05:08 | 62.01203 | -60.50883 | 35008 ft | 519 kts | 67° |
| 2026-04-24 05:08 | 62.03941 | -60.36657 | 35011 ft | 519 kts | 68° |
| 2026-04-24 05:09 | 62.06651 | -60.22478 | 35004 ft | 519 kts | 68° |
| 2026-04-24 05:09 | 62.09360 | -60.08199 | 35008 ft | 519 kts | 68° |
| 2026-04-24 05:10 | 62.12072 | -59.93799 | 35009 ft | 519 kts | 68° |
| 2026-04-24 05:10 | 62.14735 | -59.79560 | 35009 ft | 519 kts | 68° |
| 2026-04-24 05:11 | 62.17400 | -59.65200 | 35009 ft | 519 kts | 68° |
| 2026-04-24 05:11 | 62.20051 | -59.50815 | 35011 ft | 519 kts | 68° |
| 2026-04-24 05:12 | 62.22687 | -59.36403 | 35011 ft | 519 kts | 68° |
| 2026-04-24 05:12 | 62.25309 | -59.21961 | 35011 ft | 519 kts | 69° |
| 2026-04-24 05:13 | 62.29209 | -59.00275 | 35009 ft | 519 kts | 69° |
| 2026-04-24 05:14 | 62.31794 | -58.85770 | 35008 ft | 519 kts | 69° |
| 2026-04-24 05:14 | 62.34362 | -58.71248 | 35013 ft | 519 kts | 69° |
| 2026-04-24 05:15 | 62.36915 | -58.56698 | 35008 ft | 519 kts | 69° |
| 2026-04-24 05:15 | 62.39452 | -58.42125 | 35007 ft | 519 kts | 69° |
| 2026-04-24 05:16 | 62.41977 | -58.27518 | 35010 ft | 519 kts | 69° |
| 2026-04-24 05:16 | 62.44487 | -58.12894 | 35011 ft | 519 kts | 69° |
| 2026-04-24 05:17 | 62.46787 | -57.98113 | 35013 ft | 519 kts | 75° |
| 2026-04-24 05:17 | 62.48266 | -57.82863 | 35008 ft | 519 kts | 79° |
| 2026-04-24 05:18 | 62.49733 | -57.67585 | 35002 ft | 519 kts | 78° |
| 2026-04-24 05:18 | 62.51195 | -57.52282 | 35011 ft | 519 kts | 79° |
| 2026-04-24 05:19 | 62.52623 | -57.36950 | 35009 ft | 519 kts | 79° |
| 2026-04-24 05:19 | 62.54025 | -57.21609 | 35006 ft | 519 kts | 79° |
| 2026-04-24 05:20 | 62.55409 | -57.06245 | 35012 ft | 519 kts | 79° |
| 2026-04-24 05:20 | 62.56775 | -56.90882 | 35013 ft | 519 kts | 79° |
| 2026-04-24 05:21 | 62.58116 | -56.75603 | 35014 ft | 519 kts | 80° |
| 2026-04-24 05:21 | 62.59459 | -56.60096 | 35014 ft | 519 kts | 80° |
| 2026-04-24 05:22 | 62.60765 | -56.44795 | 35008 ft | 519 kts | 80° |
| 2026-04-24 05:22 | 62.62064 | -56.29372 | 35013 ft | 519 kts | 80° |
| 2026-04-24 05:23 | 62.63345 | -56.13950 | 35010 ft | 519 kts | 80° |
| 2026-04-24 05:23 | 62.64610 | -55.98507 | 35011 ft | 519 kts | 81° |
| 2026-04-24 05:24 | 62.65858 | -55.83044 | 35002 ft | 519 kts | 81° |
| 2026-04-24 05:24 | 62.67088 | -55.67577 | 35006 ft | 519 kts | 81° |
| 2026-04-24 05:25 | 62.68303 | -55.52088 | 35005 ft | 519 kts | 81° |
| 2026-04-24 05:25 | 62.69499 | -55.36589 | 35003 ft | 519 kts | 81° |
| 2026-04-24 05:26 | 62.70678 | -55.21093 | 35005 ft | 519 kts | 81° |
| 2026-04-24 05:26 | 62.71841 | -55.05564 | 35013 ft | 519 kts | 81° |
| 2026-04-24 05:27 | 62.72986 | -54.90039 | 35003 ft | 519 kts | 82° |
| 2026-04-24 05:27 | 62.74114 | -54.74486 | 35008 ft | 519 kts | 82° |
| 2026-04-24 05:28 | 62.75225 | -54.58938 | 35011 ft | 519 kts | 82° |
| 2026-04-24 05:28 | 62.76318 | -54.43378 | 35013 ft | 519 kts | 82° |
| 2026-04-24 05:29 | 62.77395 | -54.27791 | 35013 ft | 519 kts | 82° |
| 2026-04-24 05:29 | 62.78453 | -54.12207 | 35003 ft | 519 kts | 82° |
| 2026-04-24 05:30 | 62.79495 | -53.96617 | 35003 ft | 519 kts | 82° |
| 2026-04-24 05:30 | 62.80519 | -53.81004 | 35013 ft | 519 kts | 83° |
| 2026-04-24 05:31 | 62.81358 | -53.68017 | 35010 ft | 519 kts | 83° |
| 2026-04-24 05:31 | 62.82350 | -53.52392 | 35010 ft | 519 kts | 83° |
| 2026-04-24 05:32 | 62.83326 | -53.36756 | 35011 ft | 519 kts | 83° |
| 2026-04-24 05:32 | 62.84283 | -53.21119 | 35003 ft | 519 kts | 83° |
| 2026-04-24 05:33 | 62.85224 | -53.05451 | 35005 ft | 519 kts | 83° |
| 2026-04-24 05:33 | 62.86147 | -52.89785 | 35009 ft | 519 kts | 83° |
| 2026-04-24 05:34 | 62.87499 | -52.66271 | 35012 ft | 519 kts | 84° |
| 2026-04-24 05:34 | 62.88379 | -52.50582 | 35009 ft | 519 kts | 84° |
| 2026-04-24 05:35 | 62.89240 | -52.34894 | 35007 ft | 519 kts | 84° |
| 2026-04-24 05:35 | 62.90085 | -52.19183 | 35009 ft | 519 kts | 84° |
| 2026-04-24 05:36 | 62.90912 | -52.03462 | 35013 ft | 519 kts | 84° |
| 2026-04-24 05:36 | 62.91721 | -51.87751 | 35013 ft | 519 kts | 84° |
| 2026-04-24 05:37 | 62.92514 | -51.72013 | 35013 ft | 519 kts | 84° |
| 2026-04-24 05:37 | 62.93288 | -51.56279 | 35004 ft | 519 kts | 85° |
| 2026-04-24 05:38 | 62.94045 | -51.40536 | 35004 ft | 519 kts | 85° |
| 2026-04-24 05:38 | 62.94784 | -51.24779 | 35012 ft | 519 kts | 85° |
| 2026-04-24 05:39 | 62.95506 | -51.09015 | 35013 ft | 519 kts | 85° |
| 2026-04-24 05:39 | 62.96210 | -50.93253 | 35011 ft | 519 kts | 85° |
| 2026-04-24 05:40 | 62.96897 | -50.77467 | 35005 ft | 519 kts | 85° |
| 2026-04-24 05:40 | 62.97566 | -50.61673 | 35016 ft | 519 kts | 85° |
| 2026-04-24 05:41 | 62.98218 | -50.45874 | 35012 ft | 519 kts | 86° |
| 2026-04-24 05:41 | 62.98853 | -50.30077 | 35016 ft | 519 kts | 86° |
| 2026-04-24 05:42 | 62.99481 | -50.14257 | 35018 ft | 519 kts | 86° |
| 2026-04-24 05:42 | 62.99935 | -49.98414 | 35013 ft | 518 kts | 90° |
| 2026-04-24 05:43 | 62.99700 | -49.82586 | 35013 ft | 517 kts | 94° |
| 2026-04-24 05:43 | 62.99452 | -49.66765 | 35018 ft | 518 kts | 93° |
| 2026-04-24 05:44 | 62.99213 | -49.50931 | 35014 ft | 518 kts | 93° |
| 2026-04-24 05:44 | 62.98944 | -49.35103 | 35016 ft | 518 kts | 94° |
| 2026-04-24 05:45 | 62.98647 | -49.19388 | 35018 ft | 518 kts | 94° |
| 2026-04-24 05:45 | 62.98327 | -49.03571 | 35017 ft | 518 kts | 94° |
| 2026-04-24 05:46 | 62.97988 | -48.87764 | 35015 ft | 518 kts | 94° |
| 2026-04-24 05:46 | 62.97632 | -48.71950 | 35009 ft | 517 kts | 94° |
| 2026-04-24 05:47 | 62.97258 | -48.56167 | 35017 ft | 517 kts | 94° |
| 2026-04-24 05:47 | 62.96867 | -48.40371 | 35008 ft | 517 kts | 95° |
| 2026-04-24 05:48 | 62.96458 | -48.24577 | 35016 ft | 517 kts | 95° |
| 2026-04-24 05:48 | 62.96032 | -48.08812 | 35006 ft | 517 kts | 95° |
| 2026-04-24 05:49 | 62.95588 | -47.93050 | 35005 ft | 517 kts | 95° |
| 2026-04-24 05:49 | 62.95127 | -47.77293 | 35011 ft | 517 kts | 95° |
| 2026-04-24 05:50 | 62.94648 | -47.61540 | 35009 ft | 517 kts | 95° |
| 2026-04-24 05:50 | 62.94152 | -47.45798 | 35014 ft | 517 kts | 95° |
| 2026-04-24 05:51 | 62.93639 | -47.30069 | 35003 ft | 516 kts | 96° |
| 2026-04-24 05:51 | 62.93108 | -47.14345 | 35005 ft | 516 kts | 96° |
| 2026-04-24 05:52 | 62.92560 | -46.98633 | 35002 ft | 516 kts | 96° |
| 2026-04-24 05:52 | 62.91994 | -46.82918 | 35009 ft | 516 kts | 96° |
| 2026-04-24 05:53 | 62.91411 | -46.67222 | 35005 ft | 516 kts | 96° |
| 2026-04-24 05:53 | 62.90810 | -46.51531 | 35010 ft | 516 kts | 96° |
| 2026-04-24 05:54 | 62.90193 | -46.35854 | 35005 ft | 516 kts | 96° |
| 2026-04-24 05:54 | 62.89558 | -46.20178 | 35009 ft | 516 kts | 97° |
| 2026-04-24 05:55 | 62.88901 | -46.04404 | 35003 ft | 516 kts | 97° |
| 2026-04-24 05:55 | 62.88235 | -45.88849 | 35012 ft | 516 kts | 97° |
| 2026-04-24 05:56 | 62.87548 | -45.73200 | 35009 ft | 516 kts | 97° |
| 2026-04-24 05:56 | 62.86844 | -45.57558 | 35003 ft | 516 kts | 97° |
| 2026-04-24 05:57 | 62.86123 | -45.41929 | 35001 ft | 516 kts | 97° |
| 2026-04-24 05:57 | 62.85383 | -45.26285 | 35011 ft | 516 kts | 97° |
| 2026-04-24 05:58 | 62.84627 | -45.10673 | 35011 ft | 516 kts | 98° |
| 2026-04-24 05:58 | 62.83854 | -44.95063 | 35005 ft | 516 kts | 98° |
| 2026-04-24 05:59 | 62.83063 | -44.79467 | 35005 ft | 516 kts | 98° |
| 2026-04-24 05:59 | 62.82255 | -44.63873 | 35006 ft | 516 kts | 98° |
| 2026-04-24 06:00 | 62.81429 | -44.48285 | 35009 ft | 516 kts | 98° |
| 2026-04-24 06:00 | 62.80588 | -44.32731 | 35008 ft | 516 kts | 98° |
| 2026-04-24 06:01 | 62.79729 | -44.17167 | 35009 ft | 515 kts | 98° |
| 2026-04-24 06:01 | 62.78852 | -44.01615 | 35008 ft | 515 kts | 99° |
| 2026-04-24 06:02 | 62.77960 | -43.86094 | 35000 ft | 515 kts | 99° |
| 2026-04-24 06:02 | 62.77049 | -43.70569 | 35012 ft | 515 kts | 99° |
| 2026-04-24 06:03 | 62.76122 | -43.55054 | 35007 ft | 515 kts | 99° |
| 2026-04-24 06:03 | 62.75177 | -43.39546 | 35011 ft | 515 kts | 99° |
| 2026-04-24 06:04 | 62.74216 | -43.24065 | 35000 ft | 515 kts | 99° |
| 2026-04-24 06:04 | 62.73238 | -43.08591 | 35001 ft | 515 kts | 99° |
| 2026-04-24 06:05 | 62.72243 | -42.93104 | 35011 ft | 516 kts | 100° |
| 2026-04-24 06:05 | 62.71229 | -42.77632 | 35017 ft | 516 kts | 100° |
| 2026-04-24 06:06 | 62.70198 | -42.62162 | 35019 ft | 516 kts | 100° |
| 2026-04-24 06:06 | 62.69150 | -42.46686 | 35015 ft | 516 kts | 100° |
| 2026-04-24 06:07 | 62.68085 | -42.31242 | 35010 ft | 516 kts | 100° |
| 2026-04-24 06:07 | 62.67004 | -42.15816 | 35008 ft | 516 kts | 101° |
| 2026-04-24 06:08 | 62.65905 | -42.00386 | 35018 ft | 516 kts | 101° |
| 2026-04-24 06:08 | 62.64790 | -41.84983 | 35007 ft | 515 kts | 101° |
| 2026-04-24 06:09 | 62.63659 | -41.69603 | 35016 ft | 515 kts | 101° |
| 2026-04-24 06:09 | 62.63281 | -41.64518 | 35008 ft | 515 kts | 101° |